createdAt,value
2022-10-06T00:01:24.380Z,75.80
2022-10-06T00:04:04.811Z,75.90
2022-10-06T00:06:54.168Z,75.90
2022-10-06T00:09:29.746Z,76.00
2022-10-06T00:12:09.558Z,75.90
2022-10-06T00:15:22.233Z,76.00
2022-10-06T00:17:50.799Z,76.10
2022-10-06T00:20:45.465Z,76.00
2022-10-06T00:23:24.331Z,76.20
2022-10-06T00:26:53.937Z,76.20
2022-10-06T00:29:09.075Z,76.20
2022-10-06T00:31:44.502Z,76.20
2022-10-06T00:34:18.260Z,76.30
2022-10-06T00:36:50.094Z,76.20
2022-10-06T00:39:20.635Z,76.30
2022-10-06T00:42:18.112Z,76.30
2022-10-06T00:45:19.376Z,76.30
2022-10-06T00:47:50.658Z,76.40
2022-10-06T00:50:29.875Z,76.40
2022-10-06T00:53:07.485Z,76.50
2022-10-06T00:55:34.697Z,76.50
2022-10-06T00:58:04.186Z,76.50
2022-10-06T01:00:37.820Z,76.60
2022-10-06T01:03:15.259Z,76.60
2022-10-06T01:05:53.485Z,76.60
2022-10-06T01:08:37.426Z,76.60
2022-10-06T01:11:16.423Z,76.60
2022-10-06T01:13:54.553Z,76.60
2022-10-06T01:16:32.426Z,76.60
2022-10-06T01:19:06.230Z,76.70
2022-10-06T01:21:35.753Z,76.70
2022-10-06T01:24:09.463Z,76.80
2022-10-06T01:26:54.408Z,76.80
2022-10-06T01:29:24.711Z,76.90
2022-10-06T01:31:54.215Z,76.90
2022-10-06T01:34:32.820Z,76.90
2022-10-06T01:37:20.047Z,76.90
2022-10-06T01:39:56.846Z,77.00
2022-10-06T01:42:56.874Z,77.00
2022-10-06T01:45:24.812Z,77.10
2022-10-06T01:47:55.546Z,77.10
2022-10-06T01:50:25.321Z,77.10
2022-10-06T01:52:57.954Z,77.20
2022-10-06T01:55:27.735Z,77.30
2022-10-06T01:57:57.550Z,77.40
2022-10-06T02:00:31.390Z,77.50
2022-10-06T02:03:06.435Z,77.50
2022-10-06T02:05:34.500Z,77.60
2022-10-06T02:08:18.413Z,77.50
2022-10-06T02:13:34.572Z,77.80
2022-10-06T02:16:01.800Z,77.80
2022-10-06T02:18:39.973Z,77.80
2022-10-06T02:21:17.168Z,77.90
2022-10-06T02:23:46.665Z,77.90
2022-10-06T02:26:19.854Z,78.00
2022-10-06T02:28:52.428Z,78.10
2022-10-06T02:31:24.228Z,78.10
2022-10-06T02:33:52.895Z,78.10
2022-10-06T02:36:20.141Z,78.10
2022-10-06T02:38:53.381Z,78.20
2022-10-06T02:41:27.071Z,78.20
2022-10-06T02:43:57.255Z,78.20
2022-10-06T02:46:38.171Z,78.30
2022-10-06T02:49:08.065Z,78.30
2022-10-06T02:51:47.993Z,78.30
2022-10-06T02:54:19.753Z,78.40
2022-10-06T02:57:40.550Z,78.40
2022-10-06T03:03:02.508Z,78.50
2022-10-06T03:05:40.769Z,78.50
2022-10-06T03:08:21.544Z,78.40
2022-10-06T03:10:55.352Z,78.40
2022-10-06T03:13:30.369Z,78.40
2022-10-06T03:16:23.445Z,78.50
2022-10-06T03:18:56.322Z,78.40
2022-10-06T03:21:34.667Z,78.40
2022-10-06T03:24:21.063Z,78.50
2022-10-06T03:26:49.813Z,78.60
2022-10-06T03:29:28.551Z,78.60
2022-10-06T03:32:26.891Z,78.50
2022-10-06T03:35:16.608Z,78.60
2022-10-06T03:38:16.111Z,78.60
2022-10-06T03:40:52.292Z,78.60
2022-10-06T03:43:42.021Z,78.70
2022-10-06T03:46:12.653Z,78.70
2022-10-06T03:48:49.326Z,78.80
2022-10-06T12:05:57.222Z,68.20
2022-10-06T12:08:55.863Z,68.30
2022-10-06T12:12:23.565Z,68.10
2022-10-06T12:40:50.501Z,67.20
2022-10-06T13:24:13.095Z,66.40
2022-10-06T13:28:54.431Z,66.30
2022-10-06T13:54:00.005Z,66.00
2022-10-06T14:07:34.126Z,65.40
2022-10-06T14:10:35.015Z,65.80
2022-10-06T14:13:22.022Z,65.10
2022-10-06T14:16:07.365Z,65.00
2022-10-06T14:19:13.352Z,64.80
2022-10-06T14:25:33.936Z,64.70
2022-10-06T14:36:13.060Z,64.80
2022-10-06T14:38:56.812Z,65.00
2022-10-06T14:42:14.967Z,65.00
2022-10-06T14:44:43.678Z,65.10
2022-10-06T14:47:53.990Z,65.30
2022-10-06T14:51:10.714Z,65.20
2022-10-06T14:53:39.561Z,65.40
2022-10-06T14:56:16.887Z,65.40
2022-10-06T14:58:58.903Z,65.40
2022-10-06T15:01:32.280Z,65.40
2022-10-06T15:05:31.598Z,65.50
2022-10-06T15:08:53.368Z,65.50
2022-10-06T15:11:46.279Z,65.70
2022-10-06T15:14:44.465Z,65.70
2022-10-06T15:17:12.478Z,65.70
2022-10-06T15:19:40.978Z,65.80
2022-10-06T15:25:56.343Z,65.90
2022-10-06T16:10:23.604Z,67.30
2022-10-06T16:13:05.782Z,67.20
2022-10-06T16:24:20.509Z,67.50
2022-10-06T16:36:21.981Z,68.00
2022-10-06T16:54:53.230Z,68.50
2022-10-06T17:05:00.036Z,68.80
2022-10-06T17:07:58.356Z,68.90
2022-10-06T17:15:03.124Z,69.20
2022-10-06T17:21:44.299Z,69.50
2022-10-06T17:55:55.977Z,71.20
2022-10-06T18:29:13.574Z,73.00
2022-10-06T18:31:46.080Z,73.10
2022-10-06T18:38:03.232Z,73.70
2022-10-06T18:40:41.432Z,73.60
2022-10-06T18:44:19.658Z,74.00
2022-10-06T18:47:06.822Z,74.20
2022-10-06T18:49:46.748Z,74.20
2022-10-06T19:04:01.566Z,75.00
2022-10-06T19:10:49.719Z,75.30
2022-10-06T19:21:42.278Z,75.70
2022-10-06T19:25:19.679Z,75.70
2022-10-06T19:35:59.339Z,76.10
2022-10-06T19:39:20.953Z,76.00
2022-10-06T19:53:13.069Z,76.50
2022-10-06T20:03:22.659Z,76.90
2022-10-06T20:25:37.670Z,77.70
2022-10-06T20:28:54.028Z,77.70
2022-10-06T20:31:31.853Z,78.00
2022-10-06T20:41:57.196Z,78.20
2022-10-06T20:47:35.226Z,78.50
2022-10-06T20:50:04.655Z,78.40
2022-10-06T20:59:15.088Z,79.20
2022-10-06T21:02:03.895Z,79.00
2022-10-06T21:05:11.813Z,79.10
2022-10-06T21:19:04.086Z,79.40
2022-10-06T21:26:18.515Z,79.70
2022-10-06T21:56:25.449Z,80.30
2022-10-06T21:58:56.003Z,80.50
2022-10-06T22:05:25.824Z,80.80
2022-10-06T22:23:45.003Z,81.00
2022-10-06T22:34:30.506Z,81.30
2022-10-06T22:41:27.312Z,81.50
2022-10-06T22:46:08.822Z,81.60
2022-10-06T22:46:44.673Z,81.20
2022-10-06T22:51:16.788Z,81.70
2022-10-06T23:04:28.991Z,82.00
2022-10-06T23:15:54.939Z,82.30
